Time;durP1;ratioP1;P1;durP2;ratioP2;P2;SDS_P1;SDS_P2;PMS_P1;PMS_P2;Temp;Humidity;BMP_temperature;BMP_pressure;BME280_temperature;BME280_humidity;BME280_pressure;Samples;Min_cycle;Max_cycle;Signal;HPM_P1;HPM_P2
2023/08/09 00:00:32;;;;;;;;;;;;;;;;;;5067061;28;19924;-66
2023/08/09 00:02:59;;;;;;;;;;;;;;;;;;5061783;28;19924;-67
2023/08/09 00:05:26;;;;;;;;;;;;;;;;;;5050406;28;19925;-66
2023/08/09 00:07:53;;;;;;;;;;;;;;;;;;5050744;28;19925;-67
2023/08/09 00:10:21;;;;;;;;;;;;;;;;;;5052751;28;20103;-67
2023/08/09 00:12:48;;;;;;;;;;;;;;;;;;5053085;28;20015;-66
2023/08/09 00:15:15;;;;;;;;;;;;;;;;;;5051668;28;19940;-67
2023/08/09 00:17:42;;;;;;;;;;;;;;;;;;5058650;28;19991;-66
2023/08/09 00:20:11;;;;;;;;;;;;;;;;;;5052505;28;20025;-67
2023/08/09 00:22:38;;;;;;;;;;;;;;;;;;5049069;28;19924;-67
2023/08/09 00:25:05;;;;;;;;;;;;;;;;;;5050980;28;19932;-67
2023/08/09 00:27:33;;;;;;;;;;;;;;;;;;5054376;28;19925;-66
2023/08/09 00:30:00;;;;;;;;;;;;;;;;;;5050057;28;19929;-67
2023/08/09 00:32:27;;;;;;;;;;;;;;;;;;5054990;28;19925;-68
2023/08/09 00:34:54;;;;;;;;;;;;;;;;;;5050897;28;19925;-67
2023/08/09 00:37:21;;;;;;;;;;;;;;;;;;5053461;28;19986;-67
2023/08/09 00:39:49;;;;;;;;;;;;;;;;;;5053073;28;19964;-67
2023/08/09 00:42:16;;;;;;;;;;;;;;;;;;5053204;28;20076;-67
2023/08/09 00:44:44;;;;;;;;;;;;;;;;;;5046922;28;19937;-67
2023/08/09 00:47:11;;;;;;;;;;;;;;;;;;5052828;28;19964;-67
2023/08/09 00:49:38;;;;;;;;;;;;;;;;;;5052463;28;20365;-67
2023/08/09 00:52:05;;;;;;;;;;;;;;;;;;5052001;28;20368;-67
2023/08/09 00:54:32;;;;;;;;;;;;;;;;;;5059524;28;19929;-66
2023/08/09 00:56:59;;;;;;;;;;;;;;;;;;5054338;28;19925;-66
2023/08/09 00:59:27;;;;;;;;;;;;;;;;;;5070334;28;19925;-67
2023/08/09 01:01:54;;;;;;;;;;;;;;;;;;5050536;28;19932;-67
2023/08/09 01:04:21;;;;;;;;;;;;;;;;;;5050026;28;19929;-66
2023/08/09 01:06:48;;;;;;;;;;;;;;;;;;5052449;28;19936;-66
2023/08/09 01:09:15;;;;;;;;;;;;;;;;;;5073612;28;19924;-67
2023/08/09 01:11:42;;;;;;;;;;;;;;;;;;5064379;28;19931;-67
2023/08/09 01:14:10;;;;;;;;;;;;;;;;;;5053454;28;19925;-67
2023/08/09 01:16:37;;;;;;;;;;;;;;;;;;5066614;28;20380;-66
2023/08/09 01:19:04;;;;;;;;;;;;;;;;;;5067941;28;20078;-67
2023/08/09 01:21:31;;;;;;;;;;;;;;;;;;5054820;28;19975;-68
2023/08/09 01:23:58;;;;;;;;;;;;;;;;;;5052658;28;19925;-67
2023/08/09 01:26:25;;;;;;;;;;;;;;;;;;5053570;28;19998;-69
2023/08/09 01:28:55;;;;;;;;;;;;;;;;;;5053165;28;19931;-67
2023/08/09 01:31:22;;;;;;;;;;;;;;;;;;5055520;28;19928;-66
2023/08/09 01:33:49;;;;;;;;;;;;;;;;;;5048976;28;19925;-67
2023/08/09 01:36:16;;;;;;;;;;;;;;;;;;5052116;28;19925;-66
2023/08/09 01:38:44;;;;;;;;;;;;;;;;;;5065783;28;19928;-67
2023/08/09 01:41:11;;;;;;;;;;;;;;;;;;5051648;28;19980;-66
2023/08/09 01:43:42;;;;;;;;;;;;;;;;;;5047998;28;20387;-67
2023/08/09 01:46:09;;;;;;;;;;;;;;;;;;5054266;28;19986;-67
2023/08/09 01:48:36;;;;;;;;;;;;;;;;;;5051388;28;20376;-67
2023/08/09 01:51:06;;;;;;;;;;;;;;;;;;5046294;28;19971;-67
2023/08/09 01:53:33;;;;;;;;;;;;;;;;;;5047152;28;20304;-67
2023/08/09 01:56:00;;;;;;;;;;;;;;;;;;5048839;28;20308;-67
2023/08/09 01:58:27;;;;;;;;;;;;;;;;;;5051678;28;20316;-65
2023/08/09 02:00:54;;;;;;;;;;;;;;;;;;5050656;28;19925;-66
2023/08/09 02:03:21;;;;;;;;;;;;;;;;;;5049651;28;19979;-66
2023/08/09 02:05:49;;;;;;;;;;;;;;;;;;5050403;28;19924;-66
2023/08/09 02:08:16;;;;;;;;;;;;;;;;;;5051592;28;19932;-67
2023/08/09 02:10:43;;;;;;;;;;;;;;;;;;5050411;28;19991;-66
2023/08/09 02:13:10;;;;;;;;;;;;;;;;;;5053021;28;20391;-66
2023/08/09 02:15:37;;;;;;;;;;;;;;;;;;5048939;28;19931;-67
2023/08/09 02:18:05;;;;;;;;;;;;;;;;;;5051269;28;20012;-66
2023/08/09 02:20:32;;;;;;;;;;;;;;;;;;5051066;28;19924;-66
2023/08/09 02:22:59;;;;;;;;;;;;;;;;;;5054200;28;19928;-66
2023/08/09 02:25:26;;;;;;;;;;;;;;;;;;5051142;28;20524;-66
2023/08/09 02:27:53;;;;;;;;;;;;;;;;;;5056196;28;20043;-65
2023/08/09 02:30:20;;;;;;;;;;;;;;;;;;5049502;28;19924;-67
2023/08/09 02:32:50;;;;;;;;;;;;;;;;;;5050633;28;19971;-66
2023/08/09 02:35:17;;;;;;;;;;;;;;;;;;5051275;28;19978;-66
2023/08/09 02:37:44;;;;;;;;;;;;;;;;;;5051633;28;19925;-66
2023/08/09 02:40:11;;;;;;;;;;;;;;;;;;5049012;28;20075;-66
2023/08/09 02:42:39;;;;;;;;;;;;;;;;;;5051031;28;19925;-66
2023/08/09 02:45:06;;;;;;;;;;;;;;;;;;5049893;28;19925;-67
2023/08/09 02:47:33;;;;;;;;;;;;;;;;;;5050125;28;20422;-67
2023/08/09 02:50:00;;;;;;;;;;;;;;;;;;5045629;28;19971;-67
2023/08/09 02:52:27;;;;;;;;;;;;;;;;;;5053108;28;19929;-67
2023/08/09 02:54:54;;;;;;;;;;;;;;;;;;5054945;28;19924;-67
2023/08/09 02:57:21;;;;;;;;;;;;;;;;;;5072237;28;19994;-67
2023/08/09 02:59:48;;;;;;;;;;;;;;;;;;5072569;28;19925;-67
2023/08/09 03:02:15;;;;;;;;;;;;;;;;;;5064925;28;19928;-67
2023/08/09 03:04:43;;;;;;;;;;;;;;;;;;5057507;28;19933;-66
2023/08/09 03:07:10;;;;;;;;;;;;;;;;;;5076071;28;19928;-67
2023/08/09 03:09:38;;;;;;;;;;;;;;;;;;5076160;28;19924;-67
2023/08/09 03:12:05;;;;;;;;;;;;;;;;;;5075953;28;19924;-67
2023/08/09 03:14:32;;;;;;;;;;;;;;;;;;5055756;28;19924;-67
2023/08/09 03:16:59;;;;;;;;;;;;;;;;;;5045252;28;19982;-67
2023/08/09 03:19:26;;;;;;;;;;;;;;;;;;5070364;28;19929;-65
2023/08/09 03:21:53;;;;;;;;;;;;;;;;;;5055563;28;19925;-66
2023/08/09 03:24:20;;;;;;;;;;;;;;;;;;5054486;28;20036;-65
2023/08/09 03:26:47;;;;;;;;;;;;;;;;;;5055395;28;19924;-66
2023/08/09 03:29:14;;;;;;;;;;;;;;;;;;5054686;28;19929;-66
2023/08/09 03:31:44;;;;;;;;;;;;;;;;;;5066958;28;19924;-66
2023/08/09 03:34:12;;;;;;;;;;;;;;;;;;5052972;28;19952;-66
2023/08/09 03:36:39;;;;;;;;;;;;;;;;;;5058032;28;20376;-66
2023/08/09 03:39:13;;;;;;;;;;;;;;;;;;5067314;28;19925;-65
2023/08/09 03:41:42;;;;;;;;;;;;;;;;;;5059374;28;20026;-66
2023/08/09 03:44:09;;;;;;;;;;;;;;;;;;5053618;28;19936;-66
2023/08/09 03:46:38;;;;;;;;;;;;;;;;;;5066196;28;19924;-65
2023/08/09 03:49:05;;;;;;;;;;;;;;;;;;5056347;28;19925;-66
2023/08/09 03:51:34;;;;;;;;;;;;;;;;;;5051446;28;19975;-66
2023/08/09 03:54:03;;;;;;;;;;;;;;;;;;5052141;28;19986;-67
2023/08/09 03:56:32;;;;;;;;;;;;;;;;;;5050003;28;19925;-67
2023/08/09 03:58:59;;;;;;;;;;;;;;;;;;5051882;28;19931;-67
2023/08/09 04:01:28;;;;;;;;;;;;;;;;;;5063012;28;19986;-66
2023/08/09 04:03:55;;;;;;;;;;;;;;;;;;5052080;28;19978;-66
2023/08/09 04:06:22;;;;;;;;;;;;;;;;;;5052225;28;19959;-66
2023/08/09 04:08:49;;;;;;;;;;;;;;;;;;5050662;28;20477;-66
2023/08/09 04:11:16;;;;;;;;;;;;;;;;;;5052171;28;19939;-67
2023/08/09 04:13:43;;;;;;;;;;;;;;;;;;5053386;28;19925;-67
2023/08/09 04:16:13;;;;;;;;;;;;;;;;;;5050124;28;19925;-67
2023/08/09 04:18:40;;;;;;;;;;;;;;;;;;5052150;28;19960;-67
2023/08/09 04:21:07;;;;;;;;;;;;;;;;;;5053058;28;19929;-67
2023/08/09 04:23:34;;;;;;;;;;;;;;;;;;5053227;28;19925;-66
2023/08/09 04:26:03;;;;;;;;;;;;;;;;;;5051439;28;19995;-66
2023/08/09 04:28:30;;;;;;;;;;;;;;;;;;5063618;28;19970;-66
2023/08/09 04:30:57;;;;;;;;;;;;;;;;;;5051239;28;19925;-66
2023/08/09 04:33:24;;;;;;;;;;;;;;;;;;5048814;28;20315;-66
2023/08/09 04:35:51;;;;;;;;;;;;;;;;;;5051456;28;19925;-66
2023/08/09 04:38:18;;;;;;;;;;;;;;;;;;5052176;28;20491;-66
2023/08/09 04:40:45;;;;;;;;;;;;;;;;;;5052765;28;19925;-66
2023/08/09 04:43:13;;;;;;;;;;;;;;;;;;5051871;28;19925;-66
2023/08/09 04:45:41;;;;;;;;;;;;;;;;;;5053072;28;19928;-66
2023/08/09 04:48:08;;;;;;;;;;;;;;;;;;5066007;28;20011;-66
2023/08/09 04:50:36;;;;;;;;;;;;;;;;;;5059203;28;19939;-66
2023/08/09 04:53:03;;;;;;;;;;;;;;;;;;5047048;28;19925;-67
2023/08/09 04:55:32;;;;;;;;;;;;;;;;;;5050563;28;19986;-66
2023/08/09 04:57:59;;;;;;;;;;;;;;;;;;5052183;28;20331;-67
2023/08/09 05:00:26;;;;;;;;;;;;;;;;;;5051953;28;19979;-66
2023/08/09 05:02:58;;;;;;;;;;;;;;;;;;5049389;28;19925;-66
2023/08/09 05:05:26;;;;;;;;;;;;;;;;;;5060607;28;19978;-66
2023/08/09 05:07:53;;;;;;;;;;;;;;;;;;5072178;28;19928;-66
2023/08/09 05:10:20;;;;;;;;;;;;;;;;;;5073277;28;19970;-66
2023/08/09 05:12:47;;;;;;;;;;;;;;;;;;5073423;28;19924;-66
2023/08/09 05:15:14;;;;;;;;;;;;;;;;;;5056187;28;20006;-67
2023/08/09 05:17:41;;;;;;;;;;;;;;;;;;5057969;28;19928;-67
2023/08/09 05:20:08;;;;;;;;;;;;;;;;;;5069799;28;19928;-67
2023/08/09 05:22:35;;;;;;;;;;;;;;;;;;5067655;28;19960;-67
2023/08/09 05:25:02;;;;;;;;;;;;;;;;;;5052335;28;19929;-67
2023/08/09 05:27:29;;;;;;;;;;;;;;;;;;5053088;28;19982;-66
2023/08/09 05:29:56;;;;;;;;;;;;;;;;;;5051617;28;19978;-67
2023/08/09 05:32:23;;;;;;;;;;;;;;;;;;5047360;28;19980;-66
2023/08/09 05:34:50;;;;;;;;;;;;;;;;;;5050534;28;20311;-67
2023/08/09 05:37:17;;;;;;;;;;;;;;;;;;5051110;28;19925;-67
2023/08/09 05:39:44;;;;;;;;;;;;;;;;;;5049796;28;19925;-67
2023/08/09 05:42:11;;;;;;;;;;;;;;;;;;5052727;28;19924;-67
2023/08/09 05:44:38;;;;;;;;;;;;;;;;;;5053438;28;19924;-67
2023/08/09 05:47:05;;;;;;;;;;;;;;;;;;5049213;28;19978;-66
2023/08/09 05:49:32;;;;;;;;;;;;;;;;;;5052273;28;19924;-67
2023/08/09 05:51:59;;;;;;;;;;;;;;;;;;5049887;28;20284;-66
2023/08/09 05:54:27;;;;;;;;;;;;;;;;;;5051828;28;19996;-67
2023/08/09 05:56:54;;;;;;;;;;;;;;;;;;5048926;28;20379;-67
2023/08/09 05:59:23;;;;;;;;;;;;;;;;;;5050347;28;19975;-67
2023/08/09 06:01:50;;;;;;;;;;;;;;;;;;5058190;28;20285;-67
2023/08/09 06:04:17;;;;;;;;;;;;;;;;;;5051555;28;19995;-67
2023/08/09 06:06:45;;;;;;;;;;;;;;;;;;5050377;28;20009;-64
2023/08/09 06:09:12;;;;;;;;;;;;;;;;;;5035958;28;19932;-65
2023/08/09 06:11:39;;;;;;;;;;;;;;;;;;5051348;28;19925;-65
2023/08/09 06:14:05;;;;;;;;;;;;;;;;;;5041822;28;19929;-64
2023/08/09 06:16:35;;;;;;;;;;;;;;;;;;5044507;28;19970;-65
2023/08/09 06:19:03;;;;;;;;;;;;;;;;;;5051323;28;19979;-66
2023/08/09 06:21:32;;;;;;;;;;;;;;;;;;5051556;28;19975;-65
2023/08/09 06:23:59;;;;;;;;;;;;;;;;;;5050185;28;19936;-65
2023/08/09 06:26:26;;;;;;;;;;;;;;;;;;5048358;28;19998;-65
2023/08/09 06:28:53;;;;;;;;;;;;;;;;;;5046934;28;22132;-65
2023/08/09 06:31:20;;;;;;;;;;;;;;;;;;5045826;28;19925;-65
2023/08/09 06:33:47;;;;;;;;;;;;;;;;;;5044771;28;19986;-64
2023/08/09 06:36:14;;;;;;;;;;;;;;;;;;5048100;28;19928;-64
2023/08/09 06:38:41;;;;;;;;;;;;;;;;;;5042920;28;20285;-64
2023/08/09 06:41:08;;;;;;;;;;;;;;;;;;5057860;28;19929;-63
2023/08/09 06:43:35;;;;;;;;;;;;;;;;;;5042631;28;20362;-63
2023/08/09 06:46:02;;;;;;;;;;;;;;;;;;5050241;28;19924;-64
2023/08/09 06:48:31;;;;;;;;;;;;;;;;;;5049783;28;19948;-64
2023/08/09 06:50:58;;;;;;;;;;;;;;;;;;5045376;28;19951;-64
2023/08/09 06:53:25;;;;;;;;;;;;;;;;;;5049160;28;19971;-64
2023/08/09 06:55:52;;;;;;;;;;;;;;;;;;5045634;28;20376;-64
2023/08/09 06:58:19;;;;;;;;;;;;;;;;;;5049849;28;20023;-64
2023/08/09 07:00:46;;;;;;;;;;;;;;;;;;5043704;28;19978;-65
2023/08/09 07:03:13;;;;;;;;;;;;;;;;;;5044127;28;19925;-65
2023/08/09 07:05:40;;;;;;;;;;;;;;;;;;5042343;28;19933;-65
2023/08/09 07:08:07;;;;;;;;;;;;;;;;;;5047055;28;19979;-65
2023/08/09 07:10:34;;;;;;;;;;;;;;;;;;5043780;28;20430;-65
2023/08/09 07:13:01;;;;;;;;;;;;;;;;;;5048439;28;19987;-66
2023/08/09 07:15:28;;;;;;;;;;;;;;;;;;5042498;28;19971;-65
2023/08/09 07:17:55;;;;;;;;;;;;;;;;;;5055469;28;19924;-65
2023/08/09 07:20:22;;;;;;;;;;;;;;;;;;5051757;28;19932;-65
2023/08/09 07:22:49;;;;;;;;;;;;;;;;;;5049258;28;19932;-65
2023/08/09 07:25:17;;;;;;;;;;;;;;;;;;5048708;28;19925;-65
2023/08/09 07:27:44;;;;;;;;;;;;;;;;;;5038296;28;19982;-65
2023/08/09 07:30:11;;;;;;;;;;;;;;;;;;5042368;28;20392;-65
2023/08/09 07:32:38;;;;;;;;;;;;;;;;;;5049410;28;19955;-66
2023/08/09 07:35:05;;;;;;;;;;;;;;;;;;5055228;28;20003;-66
2023/08/09 07:37:32;;;;;;;;;;;;;;;;;;5046122;28;20379;-65
2023/08/09 07:39:59;;;;;;;;;;;;;;;;;;5039982;28;19994;-66
2023/08/09 07:42:26;;;;;;;;;;;;;;;;;;5038309;28;19925;-64
2023/08/09 07:44:53;;;;;;;;;;;;;;;;;;5040080;28;20277;-64
2023/08/09 07:47:20;;;;;;;;;;;;;;;;;;5047394;28;19925;-64
2023/08/09 07:49:47;;;;;;;;;;;;;;;;;;5048893;28;19924;-64
2023/08/09 07:52:14;;;;;;;;;;;;;;;;;;5056493;28;19925;-65
2023/08/09 07:54:43;;;;;;;;;;;;;;;;;;5051317;28;20453;-64
2023/08/09 07:57:10;;;;;;;;;;;;;;;;;;5042803;28;20327;-64
2023/08/09 07:59:37;;;;;;;;;;;;;;;;;;5053176;28;19979;-64
2023/08/09 08:02:04;;;;;;;;;;;;;;;;;;5054393;28;19947;-66
2023/08/09 08:04:31;;;;;;;;;;;;;;;;;;5054287;28;19928;-66
2023/08/09 08:06:58;;;;;;;;;;;;;;;;;;5054518;28;19940;-65
2023/08/09 08:09:25;;;;;;;;;;;;;;;;;;5055541;28;19925;-65
2023/08/09 08:11:52;;;;;;;;;;;;;;;;;;5050315;28;19978;-66
2023/08/09 08:14:19;;;;;;;;;;;;;;;;;;5057537;28;19939;-65
2023/08/09 08:16:46;;;;;;;;;;;;;;;;;;5054168;28;20359;-65
2023/08/09 08:19:13;;;;;;;;;;;;;;;;;;5054821;28;19924;-65
2023/08/09 08:21:42;;;;;;;;;;;;;;;;;;5054857;28;19925;-65
2023/08/09 08:24:11;;;;;;;;;;;;;;;;;;5052050;28;19983;-65
2023/08/09 08:26:38;;;;;;;;;;;;;;;;;;5054474;28;19928;-65
2023/08/09 08:29:06;;;;;;;;;;;;;;;;;;5050247;28;19936;-64
2023/08/09 08:31:33;;;;;;;;;;;;;;;;;;5050719;28;20450;-65
2023/08/09 08:34:00;;;;;;;;;;;;;;;;;;5044142;28;19933;-65
2023/08/09 08:36:27;;;;;;;;;;;;;;;;;;5047724;28;19968;-66
2023/08/09 08:38:54;;;;;;;;;;;;;;;;;;5055644;28;20055;-65
2023/08/09 08:41:21;;;;;;;;;;;;;;;;;;5048980;28;20195;-66
2023/08/09 08:43:49;;;;;;;;;;;;;;;;;;5045978;28;19924;-65
2023/08/09 08:46:16;;;;;;;;;;;;;;;;;;5053105;28;19939;-67
2023/08/09 08:48:43;;;;;;;;;;;;;;;;;;5059018;28;19971;-66
2023/08/09 08:51:11;;;;;;;;;;;;;;;;;;5054199;28;19924;-65
2023/08/09 08:53:38;;;;;;;;;;;;;;;;;;5054555;28;19925;-66
2023/08/09 08:56:14;;;;;;;;;;;;;;;;;;5052982;28;19924;-66
2023/08/09 08:58:41;;;;;;;;;;;;;;;;;;5051958;28;19933;-66
2023/08/09 09:01:09;;;;;;;;;;;;;;;;;;5053940;28;20391;-66
2023/08/09 09:03:36;;;;;;;;;;;;;;;;;;5052240;28;19978;-65
2023/08/09 09:06:03;;;;;;;;;;;;;;;;;;5052466;28;19975;-65
2023/08/09 09:08:32;;;;;;;;;;;;;;;;;;5051174;28;19979;-66
2023/08/09 09:11:03;;;;;;;;;;;;;;;;;;5049739;28;19974;-66
2023/08/09 09:13:30;;;;;;;;;;;;;;;;;;5053023;28;20402;-66
2023/08/09 09:15:57;;;;;;;;;;;;;;;;;;5049945;28;19964;-66
2023/08/09 09:18:24;;;;;;;;;;;;;;;;;;5061643;28;20311;-65
2023/08/09 09:20:51;;;;;;;;;;;;;;;;;;5048180;28;19925;-66
2023/08/09 09:23:18;;;;;;;;;;;;;;;;;;5043033;28;19944;-66
2023/08/09 09:25:45;;;;;;;;;;;;;;;;;;5052827;28;19925;-66
2023/08/09 09:28:14;;;;;;;;;;;;;;;;;;5049119;28;19924;-66
2023/08/09 09:30:41;;;;;;;;;;;;;;;;;;5051005;28;19978;-66
2023/08/09 09:33:08;;;;;;;;;;;;;;;;;;5044231;28;19925;-66
2023/08/09 09:35:35;;;;;;;;;;;;;;;;;;5051335;28;20019;-65
2023/08/09 09:38:02;;;;;;;;;;;;;;;;;;5047871;28;19925;-65
2023/08/09 09:40:29;;;;;;;;;;;;;;;;;;5047016;28;19929;-65
2023/08/09 09:42:56;;;;;;;;;;;;;;;;;;5050834;28;19979;-65
2023/08/09 09:45:24;;;;;;;;;;;;;;;;;;5046529;28;19933;-65
2023/08/09 09:47:51;;;;;;;;;;;;;;;;;;5040376;28;20025;-65
2023/08/09 09:50:18;;;;;;;;;;;;;;;;;;5054092;28;19928;-65
2023/08/09 09:52:45;;;;;;;;;;;;;;;;;;5051559;28;20012;-66
2023/08/09 09:55:12;;;;;;;;;;;;;;;;;;5046435;28;20320;-66
2023/08/09 09:57:39;;;;;;;;;;;;;;;;;;5046162;28;20282;-65
2023/08/09 10:00:08;;;;;;;;;;;;;;;;;;5047916;28;19939;-65
2023/08/09 10:02:35;;;;;;;;;;;;;;;;;;5054828;28;20307;-65
2023/08/09 10:05:02;;;;;;;;;;;;;;;;;;5045054;28;20286;-66
2023/08/09 10:07:30;;;;;;;;;;;;;;;;;;5042785;28;19933;-66
2023/08/09 10:09:58;;;;;;;;;;;;;;;;;;5041219;28;19960;-65
2023/08/09 10:12:25;;;;;;;;;;;;;;;;;;5046918;28;19925;-64
2023/08/09 10:14:52;;;;;;;;;;;;;;;;;;5043697;28;19986;-66
2023/08/09 10:17:19;;;;;;;;;;;;;;;;;;5038534;28;19925;-66
2023/08/09 10:19:46;;;;;;;;;;;;;;;;;;5048168;28;20441;-66
2023/08/09 10:22:13;;;;;;;;;;;;;;;;;;5040287;28;20384;-66
2023/08/09 10:24:40;;;;;;;;;;;;;;;;;;5046973;28;20654;-66
2023/08/09 10:27:10;;;;;;;;;;;;;;;;;;5046232;28;19970;-65
2023/08/09 10:29:37;;;;;;;;;;;;;;;;;;5050226;28;19932;-66
2023/08/09 10:32:05;;;;;;;;;;;;;;;;;;5043096;28;19929;-66
2023/08/09 10:34:32;;;;;;;;;;;;;;;;;;5047686;28;20007;-65
2023/08/09 10:37:00;;;;;;;;;;;;;;;;;;5049911;28;19928;-66
2023/08/09 10:39:28;;;;;;;;;;;;;;;;;;5050684;28;20049;-66
2023/08/09 10:41:54;;;;;;;;;;;;;;;;;;5042000;28;19939;-66
2023/08/09 10:44:21;;;;;;;;;;;;;;;;;;5050264;28;20031;-65
2023/08/09 10:46:48;;;;;;;;;;;;;;;;;;5049152;28;19925;-65
2023/08/09 10:49:15;;;;;;;;;;;;;;;;;;5050822;28;19925;-66
2023/08/09 10:51:42;;;;;;;;;;;;;;;;;;5049001;28;19928;-65
2023/08/09 10:54:09;;;;;;;;;;;;;;;;;;5042614;28;20396;-65
2023/08/09 10:56:37;;;;;;;;;;;;;;;;;;5039847;28;19925;-65
2023/08/09 10:59:05;;;;;;;;;;;;;;;;;;5043813;28;19979;-64
2023/08/09 11:01:32;;;;;;;;;;;;;;;;;;5045356;28;19932;-65
2023/08/09 11:03:59;;;;;;;;;;;;;;;;;;5032796;28;19929;-65
2023/08/09 11:06:26;;;;;;;;;;;;;;;;;;5041288;28;19925;-67
2023/08/09 11:11:21;;;;;;;;;;;;;;;;;;5045716;23;19939;-65
2023/08/09 11:13:48;;;;;;;;;;;;;;;;;;5043077;28;19928;-65
2023/08/09 11:16:15;;;;;;;;;;;;;;;;;;5044593;28;19925;-66
2023/08/09 11:18:42;;;;;;;;;;;;;;;;;;5044605;28;20001;-66
2023/08/09 11:21:10;;;;;;;;;;;;;;;;;;5050438;28;19925;-66
2023/08/09 11:23:37;;;;;;;;;;;;;;;;;;5044794;28;20349;-66
2023/08/09 11:26:04;;;;;;;;;;;;;;;;;;5042298;28;19933;-65
2023/08/09 11:28:31;;;;;;;;;;;;;;;;;;5026044;28;20343;-66
2023/08/09 11:30:58;;;;;;;;;;;;;;;;;;5029080;28;19929;-66
2023/08/09 11:33:25;;;;;;;;;;;;;;;;;;5026703;28;20020;-66
2023/08/09 11:35:53;;;;;;;;;;;;;;;;;;5024688;28;19929;-66
2023/08/09 11:38:20;;;;;;;;;;;;;;;;;;5020661;28;20295;-65
2023/08/09 11:40:47;;;;;;;;;;;;;;;;;;5026413;28;20303;-65
2023/08/09 11:43:14;;;;;;;;;;;;;;;;;;5024184;28;19949;-65
2023/08/09 11:45:42;;;;;;;;;;;;;;;;;;5023541;28;19925;-65
2023/08/09 11:48:09;;;;;;;;;;;;;;;;;;5030398;28;19929;-65
2023/08/09 11:50:36;;;;;;;;;;;;;;;;;;5029064;28;20380;-65
2023/08/09 11:53:04;;;;;;;;;;;;;;;;;;5024435;28;19929;-66
2023/08/09 11:55:31;;;;;;;;;;;;;;;;;;5016330;28;19929;-65
2023/08/09 11:58:01;;;;;;;;;;;;;;;;;;5018544;28;19944;-65
2023/08/09 12:00:30;;;;;;;;;;;;;;;;;;5022433;23;19984;-67
2023/08/09 12:03:02;;;;;;;;;;;;;;;;;;5046685;28;19979;-66
2023/08/09 12:05:29;;;;;;;;;;;;;;;;;;5048782;28;20318;-66
2023/08/09 12:07:57;;;;;;;;;;;;;;;;;;5047562;28;20446;-66
2023/08/09 12:10:24;;;;;;;;;;;;;;;;;;5052290;28;20007;-66
2023/08/09 12:12:51;;;;;;;;;;;;;;;;;;5053698;28;19979;-67
2023/08/09 12:15:18;;;;;;;;;;;;;;;;;;5031449;28;19991;-66
2023/08/09 12:17:46;;;;;;;;;;;;;;;;;;5030165;28;19925;-65
2023/08/09 12:20:14;;;;;;;;;;;;;;;;;;5028212;28;19925;-68
2023/08/09 12:22:41;;;;;;;;;;;;;;;;;;5030562;28;20803;-65
2023/08/09 12:25:09;;;;;;;;;;;;;;;;;;5030046;28;19933;-66
2023/08/09 12:27:39;;;;;;;;;;;;;;;;;;5020401;28;19996;-66
2023/08/09 12:30:10;;;;;;;;;;;;;;;;;;5027500;28;19929;-65
2023/08/09 12:32:37;;;;;;;;;;;;;;;;;;5020958;28;20007;-66
2023/08/09 12:35:04;;;;;;;;;;;;;;;;;;5025387;28;19925;-66
2023/08/09 12:37:31;;;;;;;;;;;;;;;;;;5024593;28;20391;-67
2023/08/09 12:39:59;;;;;;;;;;;;;;;;;;5023898;28;19980;-67
2023/08/09 12:42:26;;;;;;;;;;;;;;;;;;5027435;28;19926;-67
2023/08/09 12:44:53;;;;;;;;;;;;;;;;;;5018212;28;20011;-67
2023/08/09 12:47:23;;;;;;;;;;;;;;;;;;5028572;28;19968;-67
2023/08/09 12:49:52;;;;;;;;;;;;;;;;;;5032219;28;19932;-68
2023/08/09 12:52:19;;;;;;;;;;;;;;;;;;5024060;28;19940;-67
2023/08/09 12:54:46;;;;;;;;;;;;;;;;;;5017499;28;20343;-67
2023/08/09 12:57:14;;;;;;;;;;;;;;;;;;5019307;28;20012;-68
2023/08/09 12:59:41;;;;;;;;;;;;;;;;;;5016168;28;19933;-66
2023/08/09 13:02:08;;;;;;;;;;;;;;;;;;5018106;28;19999;-67
2023/08/09 13:04:35;;;;;;;;;;;;;;;;;;5031513;28;19926;-67
2023/08/09 13:07:02;;;;;;;;;;;;;;;;;;5019957;28;19929;-66
2023/08/09 13:09:32;;;;;;;;;;;;;;;;;;5019584;28;20252;-67
2023/08/09 13:11:59;;;;;;;;;;;;;;;;;;5020300;28;19973;-66
2023/08/09 13:14:26;;;;;;;;;;;;;;;;;;5024912;28;20346;-67
2023/08/09 13:16:53;;;;;;;;;;;;;;;;;;5031712;28;20296;-68
2023/08/09 13:19:20;;;;;;;;;;;;;;;;;;5026224;28;19965;-66
2023/08/09 13:21:48;;;;;;;;;;;;;;;;;;5028647;28;19925;-68
2023/08/09 13:24:15;;;;;;;;;;;;;;;;;;5026914;28;19964;-66
2023/08/09 13:26:42;;;;;;;;;;;;;;;;;;5027567;28;19979;-66
2023/08/09 13:29:09;;;;;;;;;;;;;;;;;;5029185;28;20331;-65
2023/08/09 13:31:36;;;;;;;;;;;;;;;;;;5020345;28;20292;-66
2023/08/09 13:34:03;;;;;;;;;;;;;;;;;;5025593;28;19929;-66
2023/08/09 13:36:30;;;;;;;;;;;;;;;;;;5031852;28;20335;-66
2023/08/09 13:38:57;;;;;;;;;;;;;;;;;;5031194;28;19933;-66
2023/08/09 13:41:24;;;;;;;;;;;;;;;;;;5023497;28;20383;-66
2023/08/09 13:43:51;;;;;;;;;;;;;;;;;;5019719;28;19925;-67
2023/08/09 13:46:18;;;;;;;;;;;;;;;;;;5029698;28;19925;-67
2023/08/09 13:48:46;;;;;;;;;;;;;;;;;;5026002;28;19925;-67
2023/08/09 13:51:14;;;;;;;;;;;;;;;;;;5026025;28;20010;-67
2023/08/09 13:53:41;;;;;;;;;;;;;;;;;;5029260;28;19925;-67
2023/08/09 13:56:09;;;;;;;;;;;;;;;;;;5031399;28;19932;-67
2023/08/09 13:58:36;;;;;;;;;;;;;;;;;;5023461;28;19929;-67
2023/08/09 14:01:03;;;;;;;;;;;;;;;;;;5028690;28;19937;-68
2023/08/09 14:03:30;;;;;;;;;;;;;;;;;;5027354;28;20384;-67
2023/08/09 14:05:57;;;;;;;;;;;;;;;;;;5023560;28;19925;-67
2023/08/09 14:08:24;;;;;;;;;;;;;;;;;;5030495;28;19979;-66
2023/08/09 14:10:51;;;;;;;;;;;;;;;;;;5027291;28;19925;-66
2023/08/09 14:13:18;;;;;;;;;;;;;;;;;;5028617;28;19929;-66
2023/08/09 14:15:45;;;;;;;;;;;;;;;;;;5036677;28;20296;-66
2023/08/09 14:18:13;;;;;;;;;;;;;;;;;;5026249;28;19925;-66
2023/08/09 14:20:41;;;;;;;;;;;;;;;;;;5028416;28;19940;-65
2023/08/09 14:23:08;;;;;;;;;;;;;;;;;;5029441;28;20064;-66
2023/08/09 14:25:35;;;;;;;;;;;;;;;;;;5027413;28;19973;-66
2023/08/09 14:28:02;;;;;;;;;;;;;;;;;;5029597;28;19933;-66
2023/08/09 14:30:29;;;;;;;;;;;;;;;;;;5029321;28;19972;-65
2023/08/09 14:32:56;;;;;;;;;;;;;;;;;;5013918;28;19933;-66
2023/08/09 14:35:26;;;;;;;;;;;;;;;;;;5023439;28;19925;-66
2023/08/09 14:37:53;;;;;;;;;;;;;;;;;;5022407;28;20022;-66
2023/08/09 14:40:21;;;;;;;;;;;;;;;;;;5026664;28;19933;-67
2023/08/09 14:42:48;;;;;;;;;;;;;;;;;;5029790;28;19929;-66
2023/08/09 14:45:16;;;;;;;;;;;;;;;;;;5023448;28;19933;-67
2023/08/09 14:47:43;;;;;;;;;;;;;;;;;;5027449;28;19925;-67
2023/08/09 14:50:10;;;;;;;;;;;;;;;;;;5031919;28;19925;-67
2023/08/09 14:52:37;;;;;;;;;;;;;;;;;;5030138;28;19979;-67
2023/08/09 14:55:04;;;;;;;;;;;;;;;;;;5033422;28;19925;-66
2023/08/09 14:57:31;;;;;;;;;;;;;;;;;;5023185;28;19925;-67
2023/08/09 14:59:58;;;;;;;;;;;;;;;;;;5022314;28;19925;-67
2023/08/09 15:02:25;;;;;;;;;;;;;;;;;;5034989;28;19971;-66
2023/08/09 15:04:52;;;;;;;;;;;;;;;;;;5035556;28;20300;-65
2023/08/09 15:07:22;;;;;;;;;;;;;;;;;;5034137;28;19964;-66
2023/08/09 15:09:49;;;;;;;;;;;;;;;;;;5028237;28;19925;-66
2023/08/09 15:12:16;;;;;;;;;;;;;;;;;;5024070;28;19933;-66
2023/08/09 15:14:43;;;;;;;;;;;;;;;;;;5029026;28;20411;-66
2023/08/09 15:17:10;;;;;;;;;;;;;;;;;;5033526;28;19925;-66
2023/08/09 15:19:40;;;;;;;;;;;;;;;;;;5035170;28;19948;-67
2023/08/09 15:22:07;;;;;;;;;;;;;;;;;;5033112;28;20047;-67
2023/08/09 15:24:34;;;;;;;;;;;;;;;;;;5035576;28;19947;-65
2023/08/09 15:27:01;;;;;;;;;;;;;;;;;;5034385;28;19932;-66
2023/08/09 15:29:28;;;;;;;;;;;;;;;;;;5022647;28;19979;-66
2023/08/09 15:31:55;;;;;;;;;;;;;;;;;;5031917;28;19925;-65
2023/08/09 15:34:22;;;;;;;;;;;;;;;;;;5033440;28;19987;-66
2023/08/09 15:36:49;;;;;;;;;;;;;;;;;;5034366;28;20404;-65
2023/08/09 15:39:16;;;;;;;;;;;;;;;;;;5030898;28;20589;-66
2023/08/09 15:41:43;;;;;;;;;;;;;;;;;;5031401;28;19945;-66
2023/08/09 15:44:10;;;;;;;;;;;;;;;;;;5022818;28;20392;-66
2023/08/09 15:46:38;;;;;;;;;;;;;;;;;;5024674;28;19937;-66
2023/08/09 15:49:05;;;;;;;;;;;;;;;;;;5039310;28;20411;-66
2023/08/09 15:51:32;;;;;;;;;;;;;;;;;;5037411;28;19925;-68
2023/08/09 15:54:00;;;;;;;;;;;;;;;;;;5032955;28;19975;-67
2023/08/09 15:56:27;;;;;;;;;;;;;;;;;;5035025;28;19951;-66
2023/08/09 15:58:54;;;;;;;;;;;;;;;;;;5028163;28;19987;-65
2023/08/09 16:01:21;;;;;;;;;;;;;;;;;;5030759;28;19929;-66
2023/08/09 16:03:48;;;;;;;;;;;;;;;;;;5024894;28;19936;-65
2023/08/09 16:06:15;;;;;;;;;;;;;;;;;;5033039;28;19925;-65
2023/08/09 16:08:43;;;;;;;;;;;;;;;;;;5030904;28;19929;-65
2023/08/09 16:11:10;;;;;;;;;;;;;;;;;;5031961;28;20281;-66
2023/08/09 16:13:37;;;;;;;;;;;;;;;;;;5031680;28;19926;-66
2023/08/09 16:16:04;;;;;;;;;;;;;;;;;;5030593;28;19932;-63
2023/08/09 16:18:31;;;;;;;;;;;;;;;;;;5033550;28;19929;-65
2023/08/09 16:20:59;;;;;;;;;;;;;;;;;;5033454;28;19925;-64
2023/08/09 16:23:26;;;;;;;;;;;;;;;;;;5033132;28;19925;-65
2023/08/09 16:25:53;;;;;;;;;;;;;;;;;;5038993;28;19932;-65
2023/08/09 16:28:20;;;;;;;;;;;;;;;;;;5033081;28;19925;-66
2023/08/09 16:30:47;;;;;;;;;;;;;;;;;;5033706;28;19925;-65
2023/08/09 16:33:14;;;;;;;;;;;;;;;;;;5031848;28;19939;-66
2023/08/09 16:35:41;;;;;;;;;;;;;;;;;;5034277;28;20426;-66
2023/08/09 16:38:08;;;;;;;;;;;;;;;;;;5046117;28;20384;-66
2023/08/09 16:40:36;;;;;;;;;;;;;;;;;;5033740;28;19925;-66
2023/08/09 16:43:03;;;;;;;;;;;;;;;;;;5030880;28;19967;-66
2023/08/09 16:45:30;;;;;;;;;;;;;;;;;;5033182;28;19988;-65
2023/08/09 16:47:57;;;;;;;;;;;;;;;;;;5033695;28;19925;-64